GENERAL EDWARD LAWRENCE LOGAN INTL

KBOS (BOS)
Boston, Massachusetts
Towered

Vatsim Metar:
KBOS 282254Z 28013G22KT 10SM FEW045 FEW250 01/M11 A2976 RMK AO2 SLP077 T00111111

GENERAL EDWARD LAWRENCE LOGAN INTL ATC

BOS_GND - 121.900 - Carl Rothenhaus
Callsign Edmonton Centre CZEG info/feedback at edmontonfir.com
BOS_TWR - 128.800 - Daniel Goldring
Leave feedback at oakartcc.org/pilots/feedback

Traffic

Inbound:
Ident
Type
Name
ETA
Phase
QTR743
A359
Anchit Rahman VGHS
23:48 Z
Descent
N821V
C510
Jay Yoder KCAK
Boarding
WAT2791
A225
Gerald Carter KATL
23:52 Z
Descent
DAL5649
A320
Ryan O'Halloran KJFK
Boarding
KAP1859
C414
Bill Altonaga KEGE
Taxiing Out
BAW50G
B789
Ellis Airey EGNM
00:04 Z
Cruse
JBU716
A320
JC KJFK
Boarding
ASA1166
A20N
Justin Caughenbaugh KMCO
00:27 Z
Climb
SCX249
B738
1412401
00:44 Z
Cruse
AAL514
B738
edward jones KJFK
00:54 Z
Cruse
AAL2619
A21N
Evan Guffey KSTC
Boarding
N357TT
TBM8
Levi Long C17
01:49 Z
Cruse
JBU620
A321
1439439 KLGA
01:10 Z
Cruse
AAL720
B788
Chuck Adams KSAN
02:01 Z
Cruse
JBU2152
A320
Diego
02:11 Z
Cruse

Outbound:
Ident
Type
Name
Destination
Phase
SWA1034
B738
Rich S. KAUN
KBWI
Boarding
EDV5048
CRJ9
Hunter Kruse KLZU
KEWR
Boarding
SWA1227
B738
William S. KDFW
KDCA
Boarding
JBU1532
A321
Raymond KBOS
KORD
Climb